Time;durP1;ratioP1;P1;durP2;ratioP2;P2;SDS_P1;SDS_P2;PMS_P1;PMS_P2;Temp;Humidity;BMP_temperature;BMP_pressure;BME280_temperature;BME280_humidity;BME280_pressure;Samples;Min_cycle;Max_cycle;Signal;HPM_P1;HPM_P2
2021/12/01 00:00:26;;;;;;;14.02;7.65;;;10.00;99.90;;;;;;8422715;28;20047;-73
2021/12/01 00:04:30;;;;;;;14.32;8.07;;;10.00;99.90;;;;;;8427560;28;20108;-73
2021/12/01 00:08:33;;;;;;;12.82;7.60;;;10.00;99.90;;;;;;8426648;28;19959;-73
2021/12/01 00:12:35;;;;;;;11.43;7.18;;;10.00;99.90;;;;;;8427998;28;20055;-73
2021/12/01 00:16:37;;;;;;;13.70;7.13;;;10.00;99.90;;;;;;8429825;28;20102;-73
2021/12/01 00:20:39;;;;;;;13.85;7.55;;;10.10;99.90;;;;;;8429603;28;20051;-73
2021/12/01 00:24:41;;;;;;;12.23;7.22;;;10.10;99.90;;;;;;8422182;28;20044;-73
2021/12/01 00:28:43;;;;;;;12.73;6.88;;;10.10;99.90;;;;;;8430107;28;20047;-73
2021/12/01 00:32:45;;;;;;;13.55;7.03;;;10.10;99.90;;;;;;8429124;28;20040;-74
2021/12/01 00:36:47;;;;;;;16.40;7.30;;;10.20;99.90;;;;;;8426970;28;20106;-73
2021/12/01 00:40:49;;;;;;;11.55;7.28;;;10.20;99.90;;;;;;8425876;28;20048;-73
2021/12/01 00:44:59;;;;;;;15.25;8.60;;;10.20;99.90;;;;;;8418603;28;20087;-73
2021/12/01 00:49:02;;;;;;;15.18;7.88;;;10.20;99.90;;;;;;8428101;28;20135;-74
2021/12/01 00:53:07;;;;;;;13.60;6.93;;;10.30;99.90;;;;;;8432802;28;20037;-73
2021/12/01 00:57:09;;;;;;;15.48;7.28;;;10.30;99.90;;;;;;8420876;28;20198;-73
2021/12/01 01:01:11;;;;;;;14.57;7.38;;;10.30;99.90;;;;;;8423172;28;20052;-73
2021/12/01 01:05:14;;;;;;;14.32;7.78;;;10.30;99.90;;;;;;8435472;28;20052;-72
2021/12/01 01:09:16;;;;;;;13.70;7.18;;;10.30;99.90;;;;;;8432731;28;20086;-73
2021/12/01 01:17:39;;;;;;;12.07;5.72;;;10.30;99.90;;;;;;8426597;28;20052;-73
2021/12/01 01:21:44;;;;;;;11.18;6.25;;;10.30;99.90;;;;;;8462032;27;20076;-73
2021/12/01 01:25:46;;;;;;;13.00;7.32;;;10.30;99.90;;;;;;8441353;28;20040;-73
2021/12/01 01:29:47;;;;;;;11.32;6.60;;;10.30;99.90;;;;;;8436945;28;20444;-73
2021/12/01 01:33:50;;;;;;;10.50;5.72;;;10.30;99.90;;;;;;8438140;28;20040;-73
2021/12/01 01:37:52;;;;;;;12.75;6.90;;;10.30;99.90;;;;;;8431877;28;20060;-73
2021/12/01 01:41:54;;;;;;;13.52;6.88;;;10.20;99.90;;;;;;8442975;28;20079;-73
2021/12/01 01:45:57;;;;;;;11.88;5.70;;;10.30;99.90;;;;;;8438956;28;20052;-72
2021/12/01 01:50:03;;;;;;;11.55;5.80;;;10.30;99.90;;;;;;8428053;28;20040;-73
2021/12/01 01:54:05;;;;;;;9.73;4.27;;;10.30;99.90;;;;;;8431516;28;20043;-73
2021/12/01 01:58:07;;;;;;;9.30;4.85;;;10.30;99.90;;;;;;8435946;28;20068;-73
2021/12/01 02:02:09;;;;;;;7.00;3.95;;;10.20;99.90;;;;;;8436053;28;20071;-73
2021/12/01 02:06:13;;;;;;;7.60;3.95;;;10.20;99.90;;;;;;8433859;28;20386;-73
2021/12/01 02:10:15;;;;;;;5.70;3.10;;;10.10;99.90;;;;;;8432521;28;20040;-73
2021/12/01 02:14:17;;;;;;;4.95;2.72;;;10.10;99.90;;;;;;8431958;28;20364;-73
2021/12/01 02:18:19;;;;;;;4.80;2.78;;;10.10;99.90;;;;;;8435061;28;20086;-73
2021/12/01 02:22:21;;;;;;;4.78;2.78;;;10.10;99.90;;;;;;8432992;28;20080;-73
2021/12/01 02:26:24;;;;;;;4.80;2.45;;;10.00;99.90;;;;;;8434525;28;20126;-73
2021/12/01 02:30:26;;;;;;;4.45;2.35;;;10.00;99.90;;;;;;8429641;28;20048;-73
2021/12/01 02:34:33;;;;;;;5.40;2.50;;;10.00;99.90;;;;;;8436571;28;20040;-73
2021/12/01 02:38:36;;;;;;;5.30;2.35;;;9.90;99.90;;;;;;8424281;28;20059;-73
2021/12/01 02:42:38;;;;;;;4.78;2.70;;;9.90;99.90;;;;;;8426410;28;20063;-73
2021/12/01 02:46:39;;;;;;;4.60;2.53;;;9.80;99.90;;;;;;8435142;28;20100;-73
2021/12/01 02:50:42;;;;;;;6.30;2.95;;;9.80;99.90;;;;;;8423883;28;20067;-73
2021/12/01 02:54:44;;;;;;;6.30;3.10;;;9.70;99.90;;;;;;8424945;28;19921;-73
2021/12/01 02:58:46;;;;;;;;;;;9.70;99.90;;;;;;8429256;28;20368;-72
2021/12/01 03:02:48;;;;;;;;;;;9.70;99.90;;;;;;8425138;28;19978;-73
2021/12/01 03:06:50;;;;;;;;;;;9.70;99.90;;;;;;8436726;28;20256;-74
2021/12/01 03:10:53;;;;;;;;;;;9.70;99.90;;;;;;8433580;28;19981;-72
2021/12/01 03:14:55;;;;;;;;;;;9.60;99.90;;;;;;8430383;28;20021;-72
2021/12/01 03:18:57;;;;;;;;;;;9.60;99.90;;;;;;8429476;28;20422;-72
2021/12/01 03:22:59;;;;;;;;;;;9.50;99.90;;;;;;8429536;28;19935;-74
2021/12/01 03:27:00;;;;;;;;;;;9.50;99.90;;;;;;8428900;28;20363;-72
2021/12/01 03:31:02;;;;;;;;;;;9.50;99.90;;;;;;8429683;28;19924;-73
2021/12/01 03:35:05;;;;;;;;;;;9.40;99.90;;;;;;8432730;28;19920;-73
2021/12/01 03:39:07;;;;;;;6.60;2.92;;;9.40;99.90;;;;;;8429958;28;20341;-73
2021/12/01 03:43:09;;;;;;;6.30;3.20;;;9.40;99.90;;;;;;8430606;28;20092;-73
2021/12/01 03:47:11;;;;;;;6.90;4.05;;;9.40;99.90;;;;;;8428857;28;20480;-73
2021/12/01 03:51:13;;;;;;;6.18;3.38;;;9.40;99.90;;;;;;8427185;28;20055;-73
2021/12/01 03:55:14;;;;;;;6.38;3.10;;;9.40;99.90;;;;;;8430306;28;20624;-72
2021/12/01 03:59:16;;;;;;;5.40;3.10;;;9.30;99.90;;;;;;8426464;28;20076;-72
2021/12/01 04:03:18;;;;;;;5.78;3.28;;;9.30;99.90;;;;;;8431877;28;20087;-72
2021/12/01 04:07:21;;;;;;;5.97;3.65;;;9.30;99.90;;;;;;8434033;28;20483;-73
2021/12/01 04:11:22;;;;;;;5.70;3.63;;;9.30;99.90;;;;;;8429926;28;20048;-73
2021/12/01 04:15:24;;;;;;;5.38;3.50;;;9.30;99.90;;;;;;8428869;28;20633;-73
2021/12/01 04:19:26;;;;;;;6.65;4.43;;;9.20;99.90;;;;;;8457965;27;20047;-73
2021/12/01 04:23:30;;;;;;;6.70;4.53;;;9.20;99.90;;;;;;8434668;28;20055;-72
2021/12/01 04:27:31;;;;;;;7.00;4.85;;;9.10;99.90;;;;;;8435015;28;20040;-72
2021/12/01 04:31:35;;;;;;;10.07;6.22;;;9.10;99.90;;;;;;8432921;28;20774;-72
2021/12/01 04:35:37;;;;;;;9.45;5.70;;;9.10;99.90;;;;;;8429447;28;20097;-72
2021/12/01 04:39:39;;;;;;;8.40;4.72;;;9.00;99.90;;;;;;8434009;28;20054;-72
2021/12/01 04:43:41;;;;;;;8.52;5.07;;;8.90;99.90;;;;;;8428738;28;20452;-72
2021/12/01 04:47:49;;;;;;;7.90;4.72;;;8.90;99.90;;;;;;8427702;28;20116;-73
2021/12/01 04:51:56;;;;;;;7.07;4.25;;;8.90;99.90;;;;;;8422404;28;20046;-72
2021/12/01 04:55:58;;;;;;;6.13;3.40;;;8.80;99.90;;;;;;8427583;28;20046;-72
2021/12/01 04:59:59;;;;;;;5.90;3.15;;;8.80;99.90;;;;;;8423886;28;20048;-72
2021/12/01 05:04:02;;;;;;;7.22;3.67;;;8.70;99.90;;;;;;8430736;28;20086;-72
2021/12/01 05:08:04;;;;;;;6.25;3.55;;;8.70;99.90;;;;;;8427652;28;20083;-73
2021/12/01 05:12:07;;;;;;;5.95;3.40;;;8.70;99.90;;;;;;8431771;28;20083;-72
2021/12/01 05:16:08;;;;;;;5.35;2.72;;;8.60;99.90;;;;;;8426797;28;20040;-72
2021/12/01 05:20:11;;;;;;;5.32;2.85;;;8.60;99.90;;;;;;8429864;28;20151;-72
2021/12/01 05:24:13;;;;;;;6.40;3.70;;;8.60;99.90;;;;;;8424643;28;20495;-73
2021/12/01 05:28:15;;;;;;;8.23;4.18;;;8.60;99.90;;;;;;8426199;28;20062;-72
2021/12/01 05:32:17;;;;;;;7.33;3.77;;;8.60;99.90;;;;;;8420993;28;20103;-72
2021/12/01 05:36:19;;;;;;;6.22;3.60;;;8.50;99.90;;;;;;8428963;28;20055;-72
2021/12/01 05:40:21;;;;;;;6.07;3.60;;;8.50;99.90;;;;;;8432707;28;20048;-72
2021/12/01 05:44:22;;;;;;;;;;;8.50;99.90;;;;;;8431149;28;20083;-72
2021/12/01 05:48:24;;;;;;;;;;;8.50;99.90;;;;;;8436697;28;19931;-73
2021/12/01 05:52:26;;;;;;;;;;;8.50;99.90;;;;;;8429089;28;20379;-72
2021/12/01 05:56:30;;;;;;;;;;;8.50;99.90;;;;;;8438133;28;19947;-72
2021/12/01 06:00:32;;;;;;;;;;;8.50;99.90;;;;;;8417164;28;20260;-72
2021/12/01 06:04:34;;;;;;;;;;;8.60;99.90;;;;;;8430698;28;19924;-73
2021/12/01 06:08:35;;;;;;;;;;;8.60;99.90;;;;;;8458323;27;19970;-72
2021/12/01 06:12:39;;;;;;;;;;;8.60;99.90;;;;;;8425155;28;19920;-72
2021/12/01 06:16:42;;;;;;;;;;;8.60;99.90;;;;;;8422498;28;19921;-72
2021/12/01 06:20:43;;;;;;;;;;;8.60;99.90;;;;;;8434378;28;20387;-72
2021/12/01 06:24:45;;;;;;;;;;;8.60;99.90;;;;;;8424351;28;19920;-72
2021/12/01 06:28:47;;;;;;;;;;;8.60;99.90;;;;;;8426512;28;19919;-72
2021/12/01 06:32:49;;;;;;;;;;;8.50;99.90;;;;;;8433567;28;19970;-73
2021/12/01 06:36:50;;;;;;;;;;;8.60;99.90;;;;;;8429244;28;19935;-72
2021/12/01 06:40:52;;;;;;;;;;;8.60;99.90;;;;;;8431806;28;19963;-72
2021/12/01 06:44:54;;;;;;;;;;;8.60;99.90;;;;;;8429104;28;19924;-72
2021/12/01 06:48:56;;;;;;;;;;;8.70;99.90;;;;;;8428698;28;20442;-72
2021/12/01 06:52:58;;;;;;;;;;;8.70;99.90;;;;;;8428043;28;20226;-72
2021/12/01 06:56:59;;;;;;;;;;;8.70;99.90;;;;;;8425296;28;19965;-72
2021/12/01 07:01:04;;;;;;;;;;;8.70;99.90;;;;;;8413032;28;19967;-72
2021/12/01 07:05:06;;;;;;;;;;;8.80;99.90;;;;;;8420228;28;19968;-72
2021/12/01 07:09:11;;;;;;;;;;;8.80;99.90;;;;;;8427061;28;19963;-73
2021/12/01 07:13:12;;;;;;;;;;;8.80;99.90;;;;;;8424696;28;19957;-72
2021/12/01 07:17:14;;;;;;;;;;;8.80;99.90;;;;;;8420606;28;20383;-72
2021/12/01 07:21:16;;;;;;;;;;;8.80;99.90;;;;;;8428912;28;19989;-72
2021/12/01 07:25:17;;;;;;;;;;;8.90;99.90;;;;;;8426283;28;19974;-72
2021/12/01 07:29:19;;;;;;;;;;;8.90;99.90;;;;;;8424519;28;19931;-72
2021/12/01 07:33:21;;;;;;;;;;;8.90;99.90;;;;;;8434472;28;19959;-73
2021/12/01 07:37:22;;;;;;;;;;;8.90;99.90;;;;;;8429581;28;19983;-72
2021/12/01 07:41:24;;;;;;;;;;;8.90;99.90;;;;;;8424252;28;19928;-73
2021/12/01 07:45:27;;;;;;;;;;;8.90;99.90;;;;;;8425063;28;19928;-72
2021/12/01 07:49:29;;;;;;;;;;;8.90;99.90;;;;;;8429283;28;19920;-72
2021/12/01 07:53:34;;;;;;;8.93;5.32;;;9.00;99.90;;;;;;8420376;28;19931;-73
2021/12/01 07:57:37;;;;;;;8.45;4.30;;;9.00;99.90;;;;;;8417559;28;20441;-73
2021/12/01 08:01:38;;;;;;;;;;;9.10;99.90;;;;;;8416402;28;19927;-72
2021/12/01 08:05:40;;;;;;;;;;;9.10;99.90;;;;;;8452817;27;20271;-72
2021/12/01 08:09:42;;;;;;;;;;;9.10;99.90;;;;;;8427681;28;19952;-72
2021/12/01 08:13:44;;;;;;;;;;;9.20;99.90;;;;;;8419088;28;19978;-72
2021/12/01 08:17:49;;;;;;;;;;;9.20;99.90;;;;;;8423140;28;20003;-73
2021/12/01 08:21:51;;;;;;;;;;;9.20;99.90;;;;;;8423058;28;20338;-72
2021/12/01 08:25:52;;;;;;;;;;;9.30;99.90;;;;;;8425218;28;19931;-72
2021/12/01 08:29:54;;;;;;;;;;;9.20;99.90;;;;;;8419096;28;19924;-73
2021/12/01 08:33:56;;;;;;;;;;;9.20;99.90;;;;;;8422555;28;19920;-72
2021/12/01 08:37:58;;;;;;;;;;;9.20;99.90;;;;;;8417867;28;19924;-72
2021/12/01 08:42:00;;;;;;;;;;;9.20;99.90;;;;;;8416777;28;20432;-72
2021/12/01 08:46:02;;;;;;;;;;;9.20;99.90;;;;;;8423953;28;19920;-73
2021/12/01 08:50:05;;;;;;;;;;;9.10;99.90;;;;;;8424662;28;19964;-72
2021/12/01 08:54:09;;;;;;;;;;;9.00;99.90;;;;;;8422279;28;19920;-73
2021/12/01 08:58:12;;;;;;;;;;;8.90;99.90;;;;;;8415219;28;19920;-72
2021/12/01 09:02:14;;;;;;;;;;;8.80;99.90;;;;;;8412496;28;19951;-72
2021/12/01 09:06:16;;;;;;;;;;;8.80;99.90;;;;;;8421563;28;19935;-72
2021/12/01 09:10:18;;;;;;;;;;;8.70;99.90;;;;;;8419456;28;19920;-72
2021/12/01 09:14:20;;;;;;;;;;;8.70;99.90;;;;;;8417473;28;19943;-72
2021/12/01 09:18:23;;;;;;;;;;;8.70;99.90;;;;;;8424354;28;19924;-72
2021/12/01 09:22:24;;;;;;;;;;;8.70;99.90;;;;;;8420885;28;19982;-72
2021/12/01 09:26:26;;;;;;;;;;;8.70;99.90;;;;;;8449510;27;19920;-72
2021/12/01 09:30:28;;;;;;;;;;;8.70;99.90;;;;;;8420553;28;20429;-72
2021/12/01 09:34:29;;;;;;;;;;;8.70;99.90;;;;;;8427036;28;19927;-72
2021/12/01 09:38:31;;;;;;;;;;;8.80;99.90;;;;;;8419279;28;19935;-72
2021/12/01 09:42:33;;;;;;;;;;;8.80;99.90;;;;;;8431976;28;19931;-72
2021/12/01 09:46:35;;;;;;;;;;;8.80;99.90;;;;;;8416207;28;19935;-72
2021/12/01 09:50:37;;;;;;;;;;;8.80;99.90;;;;;;8418244;28;19920;-72
2021/12/01 09:54:39;;;;;;;;;;;8.80;99.90;;;;;;8421195;28;19975;-72
2021/12/01 09:58:42;;;;;;;;;;;8.80;99.90;;;;;;8413940;28;20313;-72
2021/12/01 10:02:44;;;;;;;;;;;8.70;99.90;;;;;;8422526;28;19934;-72
2021/12/01 10:06:46;;;;;;;;;;;8.60;99.90;;;;;;8421841;28;19942;-72
2021/12/01 10:10:48;;;;;;;;;;;8.60;99.90;;;;;;8423354;28;20002;-71
2021/12/01 10:14:51;;;;;;;;;;;8.60;99.90;;;;;;8425084;28;19963;-72
2021/12/01 10:18:55;;;;;;;;;;;8.50;99.90;;;;;;8421253;28;20347;-72
2021/12/01 10:23:16;;;;;;;;;;;8.50;99.90;;;;;;8423031;28;19924;-72
2021/12/01 10:27:18;;;;;;;;;;;8.50;99.90;;;;;;8417404;28;20347;-73
2021/12/01 10:31:49;;;;;;;;;;;8.50;99.90;;;;;;8419941;28;19920;-72
2021/12/01 10:35:51;;;;;;;;;;;8.50;99.90;;;;;;8407276;28;19966;-72
2021/12/01 10:40:03;;;;;;;;;;;8.50;99.90;;;;;;8423099;28;19924;-72
2021/12/01 10:44:25;;;;;;;;;;;8.50;99.90;;;;;;8416451;28;19924;-72
2021/12/01 10:48:27;;;;;;;;;;;8.50;99.90;;;;;;8416839;28;19966;-72
2021/12/01 10:52:28;;;;;;;;;;;8.60;99.90;;;;;;8457548;27;19928;-72
2021/12/01 10:56:30;;;;;;;;;;;8.70;99.90;;;;;;8446188;27;19959;-72
2021/12/01 11:00:36;;;;;;;;;;;8.70;99.90;;;;;;8425879;28;20366;-72
2021/12/01 11:04:41;;;;;;;;;;;8.70;99.90;;;;;;8426202;28;19920;-72
2021/12/01 11:08:55;;;;;;;4.78;1.27;;;8.80;99.90;;;;;;8423222;28;19931;-72
2021/12/01 11:13:02;;;;;;;6.32;1.73;;;8.90;99.90;;;;;;8428628;28;20082;-72
2021/12/01 11:17:04;;;;;;;6.18;1.67;;;9.00;99.90;;;;;;8426201;28;20043;-72
2021/12/01 11:21:08;;;;;;;5.72;1.60;;;9.10;99.90;;;;;;8426099;28;20521;-72
2021/12/01 11:25:22;;;;;;;8.32;1.85;;;9.00;99.90;;;;;;8416335;28;20048;-72
2021/12/01 11:29:26;;;;;;;8.70;1.48;;;9.00;99.90;;;;;;8419413;28;20044;-72
2021/12/01 11:33:30;;;;;;;7.05;1.55;;;8.90;99.90;;;;;;8423772;28;20064;-73
2021/12/01 11:37:31;;;;;;;7.22;1.23;;;8.90;99.90;;;;;;8418176;28;20056;-72
2021/12/01 11:41:36;;;;;;;5.15;1.25;;;8.90;99.90;;;;;;8423864;28;20048;-72
2021/12/01 11:45:41;;;;;;;6.38;1.58;;;8.90;99.90;;;;;;8429812;28;20051;-72
2021/12/01 11:49:43;;;;;;;4.93;1.83;;;8.90;99.90;;;;;;8429573;28;20095;-72
2021/12/01 11:53:51;;;;;;;6.80;1.52;;;9.00;99.90;;;;;;8421316;28;20082;-72
2021/12/01 11:57:52;;;;;;;5.53;1.15;;;8.90;99.90;;;;;;8407380;28;20571;-72
2021/12/01 12:01:54;;;;;;;5.60;1.30;;;9.00;99.90;;;;;;8416416;28;20063;-72
2021/12/01 12:06:18;;;;;;;5.43;1.30;;;9.00;99.90;;;;;;8426981;28;22181;-72
2021/12/01 12:10:21;;;;;;;6.53;1.48;;;9.10;99.90;;;;;;8416410;28;20072;-72
2021/12/01 12:14:30;;;;;;;12.48;1.52;;;9.20;99.90;;;;;;8410899;28;20039;-72
2021/12/01 12:18:35;;;;;;;4.97;1.10;;;9.20;99.90;;;;;;8406390;28;20468;-72
2021/12/01 12:22:39;;;;;;;;;;;;;;;;;;;;;
2021/12/01 12:26:44;;;;;;;5.63;1.55;;;9.20;99.90;;;;;;8401499;28;20083;-72
2021/12/01 12:30:46;;;;;;;6.78;1.25;;;9.20;99.90;;;;;;8428318;28;20080;-72
2021/12/01 12:34:51;;;;;;;5.28;1.25;;;9.20;99.90;;;;;;8409605;28;20473;-72
2021/12/01 12:39:12;;;;;;;8.50;2.10;;;9.20;99.90;;;;;;8416051;28;20238;-72
2021/12/01 12:43:15;;;;;;;9.65;1.85;;;9.20;99.90;;;;;;8407272;28;20044;-72
2021/12/01 12:47:23;;;;;;;5.32;1.17;;;9.20;99.90;;;;;;8412062;28;20050;-72
2021/12/01 12:51:33;;;;;;;4.35;1.05;;;9.30;99.90;;;;;;8405375;28;20072;-72
2021/12/01 12:55:38;;;;;;;4.80;1.20;;;9.30;99.90;;;;;;8393678;28;20102;-72
2021/12/01 12:59:39;;;;;;;6.25;1.67;;;9.30;99.90;;;;;;8388462;28;20063;-72
2021/12/01 13:03:41;;;;;;;5.32;1.30;;;9.30;99.90;;;;;;8393792;28;20082;-72
2021/12/01 13:07:46;;;;;;;7.82;2.22;;;9.30;99.90;;;;;;8388966;28;20045;-72
2021/12/01 13:11:56;;;;;;;5.55;1.45;;;9.30;99.90;;;;;;8390921;28;20068;-72
2021/12/01 13:15:58;;;;;;;6.65;1.02;;;9.30;99.90;;;;;;8395259;28;20076;-72
2021/12/01 13:20:00;;;;;;;7.07;1.63;;;9.30;99.90;;;;;;8396692;28;20079;-72
2021/12/01 13:24:03;;;;;;;4.45;1.20;;;9.40;99.90;;;;;;8401552;28;20135;-72
2021/12/01 13:28:05;;;;;;;6.82;1.60;;;9.30;99.90;;;;;;8402932;28;20127;-72
2021/12/01 13:32:15;;;;;;;5.90;1.52;;;9.30;99.90;;;;;;8398080;28;20140;-72
2021/12/01 13:36:17;;;;;;;5.18;1.70;;;9.30;99.90;;;;;;8398140;28;20118;-72
2021/12/01 13:40:19;;;;;;;3.47;1.42;;;9.30;99.90;;;;;;8399218;28;20059;-72
2021/12/01 13:44:20;;;;;;;6.30;1.40;;;9.30;99.90;;;;;;8398393;28;20075;-72
2021/12/01 13:48:22;;;;;;;5.47;1.42;;;9.30;99.90;;;;;;8399508;28;20052;-72
2021/12/01 13:52:39;;;;;;;8.60;1.58;;;9.30;99.90;;;;;;8397911;28;20152;-72
2021/12/01 13:56:41;;;;;;;7.27;1.70;;;9.30;99.90;;;;;;8405809;28;20155;-72
2021/12/01 14:00:45;;;;;;;7.28;1.95;;;9.30;99.90;;;;;;8408817;28;20131;-72
2021/12/01 14:05:03;;;;;;;7.72;1.85;;;9.20;99.90;;;;;;8414008;28;20040;-72
2021/12/01 14:09:16;;;;;;;4.57;1.58;;;9.00;99.90;;;;;;8408745;28;20136;-72
2021/12/01 14:13:18;;;;;;;;;;;8.70;99.90;;;;;;8413461;28;22121;-72
2021/12/01 14:17:20;;;;;;;;;;;8.50;99.90;;;;;;8397359;28;20010;-72
2021/12/01 14:21:23;;;;;;;;;;;8.30;99.90;;;;;;8401132;28;20079;-72
2021/12/01 14:25:25;;;;;;;;;;;8.20;99.90;;;;;;8395487;28;19920;-72
2021/12/01 14:29:28;;;;;;;;;;;8.10;99.90;;;;;;8394214;28;20014;-71
2021/12/01 14:33:29;;;;;;;;;;;8.10;99.90;;;;;;8393288;28;19956;-72
2021/12/01 14:37:33;;;;;;;;;;;8.00;99.90;;;;;;8428708;27;19920;-72
2021/12/01 14:41:34;;;;;;;;;;;7.90;99.90;;;;;;8392927;28;19963;-72
2021/12/01 14:45:36;;;;;;;;;;;7.80;99.90;;;;;;8408743;28;19920;-72
2021/12/01 14:49:41;;;;;;;;;;;7.80;99.90;;;;;;8416898;28;19955;-73
2021/12/01 14:53:42;;;;;;;;;;;7.80;99.90;;;;;;8406233;28;19986;-72
2021/12/01 14:57:49;;;;;;;;;;;7.70;99.90;;;;;;8412611;28;19963;-72
2021/12/01 15:02:29;;;;;;;;;;;7.70;99.90;;;;;;8404439;28;19928;-72
2021/12/01 15:06:31;;;;;;;;;;;7.70;99.90;;;;;;8350879;28;19928;-73
2021/12/01 15:10:40;;;;;;;;;;;7.70;99.90;;;;;;8367489;28;20027;-72
2021/12/01 15:14:51;;;;;;;;;;;7.70;99.90;;;;;;8392931;28;20024;-72
2021/12/01 15:18:55;;;;;;;;;;;7.70;99.90;;;;;;8391358;28;19935;-72
2021/12/01 15:23:02;;;;;;;;;;;7.60;99.90;;;;;;8392131;28;20399;-72
2021/12/01 15:27:04;;;;;;;;;;;7.60;99.90;;;;;;8404316;28;19967;-72
2021/12/01 15:31:06;;;;;;;;;;;7.60;99.90;;;;;;8403121;28;19921;-72
2021/12/01 15:35:08;;;;;;;;;;;7.50;99.90;;;;;;8408215;28;19931;-72
2021/12/01 15:39:10;;;;;;;;;;;7.50;99.90;;;;;;8396792;28;19965;-72
2021/12/01 15:43:12;;;;;;;;;;;7.50;99.90;;;;;;8394716;28;20010;-72
2021/12/01 15:47:14;;;;;;;;;;;7.50;99.90;;;;;;8394522;28;20026;-72
2021/12/01 15:51:15;;;;;;;;;;;7.50;99.90;;;;;;8395017;28;20368;-72
2021/12/01 15:55:17;;;;;;;;;;;7.40;99.90;;;;;;8427341;27;19956;-72
2021/12/01 15:59:19;;;;;;;;;;;7.40;99.90;;;;;;8397599;28;19962;-72
2021/12/01 16:03:25;;;;;;;;;;;7.30;99.90;;;;;;8403647;28;20299;-72
2021/12/01 16:07:27;;;;;;;;;;;7.30;99.90;;;;;;8403478;28;19934;-72
2021/12/01 16:11:28;;;;;;;;;;;7.30;99.90;;;;;;8405527;28;20391;-72
2021/12/01 16:15:31;;;;;;;;;;;7.30;99.90;;;;;;8398681;28;20300;-72
2021/12/01 16:19:33;;;;;;;;;;;7.20;99.90;;;;;;8397559;28;19928;-72
2021/12/01 16:23:36;;;;;;;;;;;7.20;99.90;;;;;;8395985;28;19935;-72
2021/12/01 16:27:39;;;;;;;;;;;7.20;99.90;;;;;;8403125;28;19967;-72
2021/12/01 16:31:44;;;;;;;;;;;7.20;99.90;;;;;;8393483;28;19968;-73
2021/12/01 16:35:46;;;;;;;;;;;7.20;99.90;;;;;;8395171;28;20378;-72
2021/12/01 16:39:48;;;;;;;;;;;7.10;99.90;;;;;;8391109;28;19928;-72
2021/12/01 16:43:50;;;;;;;;;;;7.10;99.90;;;;;;8397340;28;19966;-72
2021/12/01 16:47:52;;;;;;;;;;;7.00;99.90;;;;;;8393959;28;19928;-72
2021/12/01 16:51:53;;;;;;;;;;;7.00;99.90;;;;;;8390604;28;20354;-72
2021/12/01 16:55:55;;;;;;;;;;;7.00;99.90;;;;;;8388471;28;20010;-72
2021/12/01 16:59:57;;;;;;;;;;;6.90;99.90;;;;;;8394984;28;20011;-72
2021/12/01 17:04:02;;;;;;;;;;;6.80;99.90;;;;;;8394061;28;19931;-72
2021/12/01 17:08:25;;;;;;;;;;;6.80;99.90;;;;;;8426894;28;19944;-72
2021/12/01 17:12:27;;;;;;;;;;;6.90;99.90;;;;;;8413683;28;19959;-72
2021/12/01 17:16:29;;;;;;;;;;;6.90;99.90;;;;;;8395614;28;19934;-72
2021/12/01 17:20:30;;;;;;;;;;;6.80;99.90;;;;;;8395782;28;19920;-72
2021/12/01 17:24:36;;;;;;;;;;;6.80;99.90;;;;;;8392441;28;19938;-72
2021/12/01 17:28:39;;;;;;;;;;;6.70;99.90;;;;;;8390675;28;19960;-72
2021/12/01 17:32:41;;;;;;;;;;;6.70;99.90;;;;;;8399305;28;20010;-72
2021/12/01 17:36:42;;;;;;;;;;;6.60;99.90;;;;;;8401202;28;19935;-72
2021/12/01 17:40:44;;;;;;;;;;;6.60;99.90;;;;;;8413958;28;19920;-72
2021/12/01 17:44:46;;;;;;;;;;;6.50;99.90;;;;;;8405330;28;19928;-72
2021/12/01 17:49:05;;;;;;;;;;;6.50;99.90;;;;;;8401421;28;19924;-72
2021/12/01 17:53:07;;;;;;;;;;;6.60;99.90;;;;;;8408129;28;19931;-72
2021/12/01 17:57:08;;;;;;;;;;;6.60;99.90;;;;;;8397911;28;20078;-72
2021/12/01 18:01:11;;;;;;;;;;;6.50;99.90;;;;;;8394939;28;19927;-72
2021/12/01 18:05:14;;;;;;;;;;;6.60;99.90;;;;;;8401408;28;19923;-72
2021/12/01 18:09:17;;;;;;;;;;;6.60;99.90;;;;;;8410557;28;19920;-72
2021/12/01 18:13:18;;;;;;;;;;;6.60;99.90;;;;;;8407310;28;20019;-72
2021/12/01 18:17:20;;;;;;;;;;;6.50;99.90;;;;;;8426671;27;19935;-72
2021/12/01 18:21:22;;;;;;;;;;;6.50;99.90;;;;;;8412800;28;20292;-71
2021/12/01 18:25:40;;;;;;;;;;;6.40;99.90;;;;;;8422262;27;19931;-71
2021/12/01 18:29:42;;;;;;;;;;;6.40;99.90;;;;;;8416152;28;19940;-72
2021/12/01 18:33:44;;;;;;;;;;;6.30;99.90;;;;;;8428148;27;20379;-71
2021/12/01 18:37:45;;;;;;;;;;;6.30;99.90;;;;;;8408289;28;20015;-72
2021/12/01 18:41:47;;;;;;;;;;;6.20;99.90;;;;;;8420225;28;19920;-72
2021/12/01 18:45:49;;;;;;;;;;;6.20;99.90;;;;;;8405918;28;19947;-72
2021/12/01 18:49:51;;;;;;;;;;;6.10;99.90;;;;;;8407934;28;20330;-71
2021/12/01 18:53:53;;;;;;;;;;;6.10;99.90;;;;;;8411874;28;19925;-72
2021/12/01 18:57:54;;;;;;;;;;;6.10;99.90;;;;;;8408635;28;19963;-72
2021/12/01 19:01:56;;;;;;;;;;;6.10;99.90;;;;;;8407955;28;20279;-72
2021/12/01 19:05:58;;;;;;;;;;;6.00;99.90;;;;;;8424364;27;19942;-72
2021/12/01 19:10:00;;;;;;;;;;;6.00;99.90;;;;;;8403371;28;20020;-72
2021/12/01 19:14:02;;;;;;;;;;;6.00;99.90;;;;;;8407689;28;20512;-72
2021/12/01 19:18:03;;;;;;;;;;;5.90;99.90;;;;;;8407040;28;19971;-72
2021/12/01 19:22:05;;;;;;;;;;;5.90;99.90;;;;;;8411986;28;19967;-72
2021/12/01 19:26:10;;;;;;;;;;;5.80;99.90;;;;;;8408870;28;19964;-71
2021/12/01 19:30:13;;;;;;;;;;;5.70;99.90;;;;;;8404123;28;22437;-72
2021/12/01 19:34:16;;;;;;;;;;;5.60;99.90;;;;;;8411152;28;19932;-71
2021/12/01 19:38:17;;;;;;;;;;;5.60;99.90;;;;;;8406794;28;19923;-72
2021/12/01 19:42:19;;;;;;;;;;;5.60;99.90;;;;;;8409258;28;19983;-71
2021/12/01 19:46:21;;;;;;;;;;;5.50;99.90;;;;;;8411407;28;19928;-71
2021/12/01 19:50:23;;;;;;;;;;;5.40;99.90;;;;;;8408755;28;20355;-72
2021/12/01 19:54:25;;;;;;;;;;;5.40;99.90;;;;;;8413856;28;19935;-72
2021/12/01 19:58:26;;;;;;;;;;;5.40;99.90;;;;;;8410557;28;19955;-72
2021/12/01 20:02:28;;;;;;;;;;;5.30;99.90;;;;;;8412122;28;20395;-72
2021/12/01 20:06:47;;;;;;;;;;;5.30;99.90;;;;;;8408251;28;19935;-72
2021/12/01 20:10:49;;;;;;;;;;;5.20;99.90;;;;;;8411398;28;19963;-71
2021/12/01 20:14:50;;;;;;;;;;;5.20;99.90;;;;;;8413276;28;19925;-72
2021/12/01 20:18:52;;;;;;;;;;;5.20;99.90;;;;;;8411178;28;19967;-72
2021/12/01 20:22:55;;;;;;;;;;;5.20;99.90;;;;;;8407948;28;19959;-72
2021/12/01 20:26:59;;;;;;;;;;;5.20;99.90;;;;;;8403164;28;19920;-72
2021/12/01 20:31:02;;;;;;;;;;;5.20;99.90;;;;;;8408558;28;19963;-71
2021/12/01 20:35:06;;;;;;;;;;;5.10;99.90;;;;;;8406697;28;19928;-71
2021/12/01 20:39:09;;;;;;;;;;;5.10;99.90;;;;;;8402805;28;19931;-72
2021/12/01 20:43:10;;;;;;;;;;;5.10;99.90;;;;;;8404375;28;19929;-71
2021/12/01 20:47:38;;;;;;;;;;;5.00;99.90;;;;;;8405222;28;19927;-72
2021/12/01 20:56:24;;;;;;;;;;;4.80;99.90;;;;;;8405553;28;19927;-72
2021/12/01 21:04:47;;;;;;;;;;;4.70;99.90;;;;;;8406786;28;19931;-72
2021/12/01 21:08:52;;;;;;;;;;;4.70;99.90;;;;;;8404677;28;24532;-72
2021/12/01 21:12:57;;;;;;;;;;;4.70;99.90;;;;;;8405951;28;19924;-71
2021/12/01 21:16:58;;;;;;;;;;;4.60;99.90;;;;;;8406345;28;19955;-71
2021/12/01 21:21:00;;;;;;;;;;;4.70;99.90;;;;;;8405570;28;19947;-72
2021/12/01 21:25:03;;;;;;;;;;;4.70;99.90;;;;;;8407517;28;20010;-72
2021/12/01 21:29:08;;;;;;;;;;;4.70;99.90;;;;;;8417907;28;19975;-72
2021/12/01 21:33:10;;;;;;;;;;;4.60;99.90;;;;;;8408308;28;20084;-71
2021/12/01 21:37:12;;;;;;;;;;;4.60;99.90;;;;;;8405588;28;19919;-72
2021/12/01 21:41:15;;;;;;;;;;;4.60;99.90;;;;;;8443041;27;19931;-71
2021/12/01 21:45:17;;;;;;;;;;;4.60;99.90;;;;;;8415946;28;19920;-71
2021/12/01 21:49:18;;;;;;;;;;;4.60;99.90;;;;;;8410522;28;19970;-72
2021/12/01 21:53:20;;;;;;;;;;;4.50;99.90;;;;;;8408072;28;20383;-71
2021/12/01 21:57:22;;;;;;;;;;;4.50;99.90;;;;;;8413101;28;20014;-71
2021/12/01 22:01:24;;;;;;;;;;;4.50;99.90;;;;;;8416604;28;20289;-71
2021/12/01 22:05:26;;;;;;;;;;;4.50;99.90;;;;;;8434474;27;20396;-71
2021/12/01 22:09:28;;;;;;;;;;;4.50;99.90;;;;;;8430041;28;19920;-71
2021/12/01 22:13:29;;;;;;;;;;;4.50;99.90;;;;;;8429677;28;19923;-72
2021/12/01 22:17:31;;;;;;;;;;;4.50;99.90;;;;;;8437972;28;19919;-72
2021/12/01 22:21:36;;;;;;;;;;;4.50;99.90;;;;;;8435444;28;19920;-71
2021/12/01 22:25:39;;;;;;;;;;;4.40;99.90;;;;;;8436882;28;19927;-72
2021/12/01 22:29:44;;;;;;;;;;;4.40;99.90;;;;;;8438169;27;19921;-72
2021/12/01 22:33:47;;;;;;;;;;;4.50;99.90;;;;;;8439268;28;19920;-72
2021/12/01 22:37:49;;;;;;;;;;;4.50;99.90;;;;;;8430176;28;19934;-72
2021/12/01 22:41:51;;;;;;;;;;;4.60;99.90;;;;;;8425944;28;20063;-71
2021/12/01 22:45:54;;;;;;;;;;;4.60;99.90;;;;;;8431216;28;20355;-71
2021/12/01 22:49:56;;;;;;;;;;;4.70;99.90;;;;;;8436085;28;19920;-72
2021/12/01 22:53:57;;;;;;;;;;;4.70;99.90;;;;;;8429688;28;19963;-71
2021/12/01 22:57:59;;;;;;;;;;;4.70;99.90;;;;;;8431966;28;19967;-72
2021/12/01 23:02:01;;;;;;;;;;;4.70;99.90;;;;;;8426392;28;19921;-72
2021/12/01 23:06:03;;;;;;;;;;;4.70;99.90;;;;;;8424840;28;19920;-72
2021/12/01 23:10:05;;;;;;;;;;;4.70;99.90;;;;;;8427979;28;19921;-72